Time;durP1;ratioP1;P1;durP2;ratioP2;P2;SDS_P1;SDS_P2;PMS_P1;PMS_P2;Temp;Humidity;BMP_temperature;BMP_pressure;BME280_temperature;BME280_humidity;BME280_pressure;Samples;Min_cycle;Max_cycle;Signal;HPM_P1;HPM_P2
2022/05/12 00:01:58;;;;;;;3.08;1.20;;;19.20;99.90;;;;;;6093933;23;20030;-80
2022/05/12 00:04:26;;;;;;;2.65;1.42;;;19.20;99.90;;;;;;6068117;23;20323;-80
2022/05/12 00:06:51;;;;;;;1.58;1.25;;;19.20;99.90;;;;;;6093591;23;20343;-80
2022/05/12 00:09:17;;;;;;;2.42;1.42;;;19.20;99.90;;;;;;6068205;23;20009;-80
2022/05/12 00:11:43;;;;;;;3.85;1.40;;;19.10;99.90;;;;;;6093781;23;19999;-80
2022/05/12 00:14:10;;;;;;;4.30;1.50;;;19.10;99.90;;;;;;6093722;23;20077;-80
2022/05/12 00:16:36;;;;;;;1.83;1.40;;;19.10;99.90;;;;;;6093701;23;20015;-80
2022/05/12 00:19:02;;;;;;;3.03;1.65;;;19.10;99.90;;;;;;6068350;23;20019;-81
2022/05/12 00:21:27;;;;;;;4.30;1.30;;;19.10;99.90;;;;;;6068079;23;20032;-81
2022/05/12 00:23:56;;;;;;;2.40;1.45;;;19.10;99.90;;;;;;6094223;23;20035;-80
2022/05/12 00:26:33;;;;;;;2.17;1.40;;;19.10;99.90;;;;;;6093511;23;20031;-80
2022/05/12 00:29:00;;;;;;;2.72;1.35;;;19.10;99.90;;;;;;6093559;23;20304;-80
2022/05/12 00:31:27;;;;;;;2.97;1.60;;;19.00;99.90;;;;;;6068029;23;20003;-80
2022/05/12 00:33:53;;;;;;;2.70;1.50;;;19.00;99.90;;;;;;6093549;23;20331;-80
2022/05/12 00:36:19;;;;;;;1.75;1.35;;;19.00;99.90;;;;;;6093544;23;20009;-80
2022/05/12 00:38:45;;;;;;;4.95;1.60;;;19.10;99.90;;;;;;6093529;23;20006;-80
2022/05/12 00:41:11;;;;;;;2.20;1.48;;;19.00;99.90;;;;;;6068619;23;20017;-80
2022/05/12 00:43:48;;;;;;;3.03;1.40;;;19.00;99.90;;;;;;6067948;23;20045;-80
2022/05/12 00:46:19;;;;;;;3.70;1.38;;;19.00;99.90;;;;;;6067689;23;20037;-80
2022/05/12 00:48:46;;;;;;;4.00;2.08;;;19.00;99.90;;;;;;6067965;23;20013;-80
2022/05/12 00:51:14;;;;;;;2.15;1.42;;;19.00;99.90;;;;;;6093463;23;20006;-80
2022/05/12 00:53:41;;;;;;;2.47;1.30;;;19.00;99.90;;;;;;6093768;23;19998;-80
2022/05/12 00:56:10;;;;;;;2.17;1.55;;;19.00;99.90;;;;;;6093131;23;20014;-80
2022/05/12 00:58:36;;;;;;;2.33;1.40;;;19.00;99.90;;;;;;6067900;23;20006;-80
2022/05/12 01:01:06;;;;;;;2.65;1.60;;;19.00;99.90;;;;;;6068125;23;20006;-80
2022/05/12 01:03:32;;;;;;;4.60;1.85;;;19.00;99.90;;;;;;6093824;23;20447;-80
2022/05/12 01:05:58;;;;;;;4.43;1.50;;;19.00;99.90;;;;;;6093614;23;20003;-80
2022/05/12 01:08:24;;;;;;;5.50;1.42;;;19.00;99.90;;;;;;6067922;23;20494;-80
2022/05/12 01:10:55;;;;;;;3.33;1.73;;;19.00;99.90;;;;;;6093799;23;20006;-80
2022/05/12 01:13:21;;;;;;;1.85;1.52;;;18.90;99.90;;;;;;6093832;23;20006;-80
2022/05/12 01:15:56;;;;;;;2.65;1.70;;;18.90;99.90;;;;;;6067793;23;20060;-80
2022/05/12 01:18:23;;;;;;;2.33;1.42;;;18.90;99.90;;;;;;6067892;23;20091;-80
2022/05/12 01:20:50;;;;;;;3.05;1.30;;;18.90;99.90;;;;;;6067871;23;20365;-80
2022/05/12 01:23:31;;;;;;;2.65;1.45;;;18.90;99.90;;;;;;6093392;23;20002;-80
2022/05/12 01:26:05;;;;;;;4.10;1.70;;;18.90;99.90;;;;;;6093305;23;20007;-80
2022/05/12 01:28:31;;;;;;;2.93;1.50;;;18.90;99.90;;;;;;6093793;23;19998;-80
2022/05/12 01:30:56;;;;;;;2.22;1.50;;;18.90;99.90;;;;;;6093434;23;20076;-80
2022/05/12 01:33:22;;;;;;;4.90;1.40;;;18.80;99.90;;;;;;6067730;23;20030;-80
2022/05/12 01:35:49;;;;;;;2.63;1.50;;;18.80;99.90;;;;;;6067918;23;20013;-80
2022/05/12 01:38:15;;;;;;;3.80;1.48;;;18.80;99.90;;;;;;6093623;23;20010;-80
2022/05/12 01:40:43;;;;;;;2.33;1.50;;;18.80;99.90;;;;;;6093314;23;20003;-80
2022/05/12 01:43:11;;;;;;;3.20;1.48;;;18.80;99.90;;;;;;6067737;23;20010;-80
2022/05/12 01:45:37;;;;;;;3.42;1.50;;;18.80;99.90;;;;;;6093528;23;20009;-80
2022/05/12 01:48:05;;;;;;;3.67;1.95;;;18.80;99.90;;;;;;6067670;23;20011;-80
2022/05/12 01:50:30;;;;;;;2.33;1.60;;;18.80;99.90;;;;;;6093630;23;20479;-80
2022/05/12 01:52:56;;;;;;;4.15;1.52;;;18.80;99.90;;;;;;6093677;23;20033;-80
2022/05/12 01:55:23;;;;;;;3.25;1.55;;;18.70;99.90;;;;;;6092962;23;20002;-80
2022/05/12 01:57:49;;;;;;;2.45;1.50;;;18.80;99.90;;;;;;6067705;23;20093;-80
2022/05/12 02:00:22;;;;;;;3.20;1.58;;;18.80;99.90;;;;;;6093320;23;20080;-80
2022/05/12 02:02:49;;;;;;;4.75;1.52;;;18.80;99.90;;;;;;6093302;23;20087;-80
2022/05/12 02:05:15;;;;;;;2.97;1.80;;;18.80;99.90;;;;;;6093425;23;20076;-80
2022/05/12 02:07:43;;;;;;;2.22;1.35;;;18.70;99.90;;;;;;6067601;23;20335;-80
2022/05/12 02:10:12;;;;;;;2.15;1.42;;;18.70;99.90;;;;;;6093487;23;19998;-80
2022/05/12 02:12:38;;;;;;;3.60;1.30;;;18.70;99.90;;;;;;6067552;23;20003;-80
2022/05/12 02:15:05;;;;;;;4.13;1.48;;;18.70;99.90;;;;;;6093103;23;20007;-80
2022/05/12 02:17:32;;;;;;;3.55;1.60;;;18.70;99.90;;;;;;6067601;23;20004;-80
2022/05/12 02:19:59;;;;;;;4.32;1.60;;;18.70;99.90;;;;;;6067548;23;20010;-80
2022/05/12 02:22:24;;;;;;;5.70;1.83;;;18.70;99.90;;;;;;6093055;23;20438;-80
2022/05/12 02:24:50;;;;;;;1.80;1.35;;;18.70;99.90;;;;;;6093010;23;20012;-80
2022/05/12 02:27:16;;;;;;;1.90;1.40;;;18.70;99.90;;;;;;6093050;23;20025;-80
2022/05/12 02:29:41;;;;;;;2.10;1.50;;;18.70;99.90;;;;;;6067537;23;20052;-80
2022/05/12 02:32:07;;;;;;;5.15;1.92;;;18.70;99.90;;;;;;6093086;23;20335;-80
2022/05/12 02:34:34;;;;;;;2.30;1.67;;;18.70;99.90;;;;;;6067517;23;20007;-80
2022/05/12 02:37:01;;;;;;;3.47;1.80;;;18.60;99.90;;;;;;6067387;23;20006;-80
2022/05/12 02:39:35;;;;;;;1.80;1.52;;;18.70;99.90;;;;;;6067354;23;20085;-80
2022/05/12 02:42:01;;;;;;;3.33;1.73;;;18.60;99.90;;;;;;6093010;23;19999;-80
2022/05/12 02:44:28;;;;;;;2.05;1.80;;;18.60;99.90;;;;;;6092923;23;20011;-80
2022/05/12 02:46:53;;;;;;;3.00;1.65;;;18.70;99.90;;;;;;6092879;23;20003;-80
2022/05/12 02:49:19;;;;;;;4.72;1.70;;;18.60;99.90;;;;;;6067356;23;20014;-80
2022/05/12 02:51:44;;;;;;;2.90;1.70;;;18.60;99.90;;;;;;6092939;23;20005;-80
2022/05/12 02:54:15;;;;;;;2.67;1.60;;;18.60;99.90;;;;;;6067334;23;20010;-80
2022/05/12 02:56:40;;;;;;;3.45;1.60;;;18.60;99.90;;;;;;6092631;23;20025;-80
2022/05/12 02:59:07;;;;;;;2.63;1.65;;;18.60;99.90;;;;;;6093207;23;20331;-80
2022/05/12 03:01:32;;;;;;;3.03;1.77;;;18.60;99.90;;;;;;6092817;23;20003;-80
2022/05/12 03:03:58;;;;;;;5.13;1.73;;;18.60;99.90;;;;;;6092835;23;20081;-80
2022/05/12 03:06:25;;;;;;;3.75;1.80;;;18.60;99.90;;;;;;6092698;23;20430;-80
2022/05/12 03:08:51;;;;;;;1.83;1.67;;;18.60;99.90;;;;;;6092799;23;20427;-80
2022/05/12 03:11:17;;;;;;;3.50;1.70;;;18.50;99.90;;;;;;6092751;23;20303;-80
2022/05/12 03:13:43;;;;;;;4.43;1.75;;;18.50;99.90;;;;;;6093084;23;20078;-80
2022/05/12 03:16:10;;;;;;;3.80;1.70;;;18.50;99.90;;;;;;6092805;23;20038;-80
2022/05/12 03:18:37;;;;;;;6.80;1.98;;;18.50;99.90;;;;;;6092759;23;20457;-80
2022/05/12 03:21:03;;;;;;;2.55;1.63;;;18.50;99.90;;;;;;6067116;23;20011;-80
2022/05/12 03:23:29;;;;;;;3.92;2.00;;;18.50;99.90;;;;;;6067746;23;20014;-80
2022/05/12 03:25:55;;;;;;;5.00;1.88;;;18.50;99.90;;;;;;6068243;23;20347;-80
2022/05/12 03:28:21;;;;;;;2.30;1.85;;;18.50;99.90;;;;;;6068334;23;20014;-80
2022/05/12 03:30:47;;;;;;;5.25;1.80;;;18.50;99.90;;;;;;6068246;23;20006;-80
2022/05/12 03:33:13;;;;;;;4.30;1.70;;;18.50;99.90;;;;;;6094006;23;19998;-80
2022/05/12 03:35:39;;;;;;;1.67;1.30;;;18.50;99.90;;;;;;6068315;23;20113;-80
2022/05/12 03:38:05;;;;;;;7.13;1.90;;;18.50;99.90;;;;;;6068182;23;20046;-80
2022/05/12 03:40:31;;;;;;;4.35;1.80;;;18.50;99.90;;;;;;6094438;23;20002;-80
2022/05/12 03:42:58;;;;;;;5.22;1.80;;;18.50;99.90;;;;;;6093656;23;20005;-80
2022/05/12 03:45:25;;;;;;;5.22;1.90;;;18.40;99.90;;;;;;6094179;23;20007;-80
2022/05/12 03:47:50;;;;;;;3.50;1.90;;;18.40;99.90;;;;;;6068222;23;20368;-80
2022/05/12 03:50:19;;;;;;;4.80;1.98;;;18.40;99.90;;;;;;6068164;23;20007;-80
2022/05/12 03:52:47;;;;;;;4.80;3.00;;;18.40;99.90;;;;;;6093659;23;19994;-80
2022/05/12 03:55:16;;;;;;;3.05;2.22;;;18.40;99.90;;;;;;6068058;23;20014;-80
2022/05/12 03:57:44;;;;;;;4.85;1.92;;;18.40;99.90;;;;;;6093658;23;20010;-80
2022/05/12 04:00:12;;;;;;;4.53;2.08;;;18.40;99.90;;;;;;6068151;23;20461;-80
2022/05/12 04:02:38;;;;;;;3.85;2.08;;;18.40;99.90;;;;;;6068235;23;20320;-80
2022/05/12 04:05:06;;;;;;;4.05;1.85;;;18.40;99.90;;;;;;6093547;23;20014;-80
2022/05/12 04:07:31;;;;;;;6.28;2.00;;;18.40;99.90;;;;;;6093665;23;20003;-80
2022/05/12 04:10:00;;;;;;;4.60;1.70;;;18.40;99.90;;;;;;6068049;23;20006;-80
2022/05/12 04:12:25;;;;;;;2.25;1.77;;;18.40;99.90;;;;;;6068051;23;20109;-81
2022/05/12 04:14:51;;;;;;;4.03;1.65;;;18.30;99.90;;;;;;6068232;23;20003;-80
2022/05/12 04:17:17;;;;;;;6.10;2.20;;;18.40;99.90;;;;;;6068094;23;20082;-80
2022/05/12 04:19:44;;;;;;;3.85;1.75;;;18.40;99.90;;;;;;6068028;23;20007;-80
2022/05/12 04:22:10;;;;;;;3.75;2.10;;;18.30;99.90;;;;;;6068021;23;20006;-80
2022/05/12 04:24:35;;;;;;;7.00;2.15;;;18.30;99.90;;;;;;6093555;23;20003;-80
2022/05/12 04:27:01;;;;;;;2.47;1.88;;;18.30;99.90;;;;;;6067987;23;20338;-80
2022/05/12 04:29:27;;;;;;;2.85;2.03;;;18.30;99.90;;;;;;6068075;23;20002;-80
2022/05/12 04:31:53;;;;;;;7.25;2.22;;;18.30;99.90;;;;;;6093571;23;20002;-80
2022/05/12 04:37:02;;;;;;;4.47;1.83;;;18.30;99.90;;;;;;6093920;23;20013;-80
2022/05/12 04:39:30;;;;;;;5.50;1.83;;;18.30;99.90;;;;;;6093898;23;20006;-80
2022/05/12 04:41:56;;;;;;;6.25;2.35;;;18.30;99.90;;;;;;6093910;23;20009;-80
2022/05/12 04:44:22;;;;;;;5.13;2.22;;;18.30;99.90;;;;;;6093817;23;20006;-80
2022/05/12 04:46:47;;;;;;;3.47;1.80;;;18.30;99.90;;;;;;6068027;23;20032;-80
2022/05/12 04:49:13;;;;;;;2.97;1.77;;;18.30;99.90;;;;;;6093918;23;20049;-80
2022/05/12 04:51:40;;;;;;;3.28;1.80;;;18.30;99.90;;;;;;6094035;23;20077;-80
2022/05/12 04:54:09;;;;;;;5.00;2.00;;;18.30;99.90;;;;;;6068165;23;20449;-80
2022/05/12 04:56:39;;;;;;;4.50;2.10;;;18.30;99.90;;;;;;6067922;23;20076;-80
2022/05/12 04:59:06;;;;;;;4.47;1.90;;;18.30;99.90;;;;;;6093537;23;20085;-80
2022/05/12 05:01:32;;;;;;;3.15;2.00;;;18.30;99.90;;;;;;6093502;23;20426;-80
2022/05/12 05:04:00;;;;;;;3.00;1.92;;;18.30;99.90;;;;;;6067888;23;20006;-80
2022/05/12 05:06:27;;;;;;;3.30;2.00;;;18.30;99.90;;;;;;6093317;23;20178;-80
2022/05/12 05:08:52;;;;;;;5.95;2.00;;;18.30;99.90;;;;;;6093462;23;20050;-80
2022/05/12 05:11:18;;;;;;;5.72;2.08;;;18.30;99.90;;;;;;6093781;23;20006;-80
2022/05/12 05:13:44;;;;;;;5.20;2.10;;;18.30;99.90;;;;;;6067884;23;20477;-80
2022/05/12 05:16:10;;;;;;;4.75;1.98;;;18.30;99.90;;;;;;6093530;23;20081;-80
2022/05/12 05:18:37;;;;;;;3.33;2.10;;;18.30;99.90;;;;;;6068007;23;20010;-80
2022/05/12 05:21:04;;;;;;;3.22;2.00;;;18.30;99.90;;;;;;6093673;23;20002;-80
2022/05/12 05:23:30;;;;;;;3.30;2.30;;;18.30;99.90;;;;;;6093540;23;20033;-80
2022/05/12 05:25:55;;;;;;;7.90;1.95;;;18.30;99.90;;;;;;6093511;23;20034;-80
2022/05/12 05:28:21;;;;;;;2.67;2.00;;;18.30;99.90;;;;;;6094334;23;20002;-80
2022/05/12 05:30:47;;;;;;;4.32;1.98;;;18.30;99.90;;;;;;6093536;23;20002;-80
2022/05/12 05:33:13;;;;;;;2.35;1.75;;;18.30;99.90;;;;;;6093441;23;20002;-80
2022/05/12 05:35:39;;;;;;;5.80;1.92;;;18.30;99.90;;;;;;6067781;23;20093;-80
2022/05/12 05:38:05;;;;;;;4.30;1.90;;;18.30;99.90;;;;;;6067826;23;20494;-80
2022/05/12 05:40:31;;;;;;;4.43;2.00;;;18.30;99.90;;;;;;6067697;23;20010;-80
2022/05/12 05:42:57;;;;;;;3.47;2.17;;;18.40;99.90;;;;;;6093738;23;20006;-80
2022/05/12 05:45:24;;;;;;;2.90;1.90;;;18.40;99.90;;;;;;6067526;23;20006;-80
2022/05/12 05:47:58;;;;;;;4.40;1.95;;;18.40;99.90;;;;;;6067776;23;19998;-80
2022/05/12 05:50:29;;;;;;;3.97;2.50;;;18.30;99.90;;;;;;6067822;23;20434;-80
2022/05/12 05:55:40;;;;;;;3.88;1.70;;;18.40;99.90;;;;;;6093102;23;20450;-80
2022/05/12 05:58:06;;;;;;;3.72;1.83;;;18.40;99.90;;;;;;6093261;23;20080;-80
2022/05/12 06:00:33;;;;;;;3.08;2.03;;;18.40;99.90;;;;;;6067775;23;20011;-80
2022/05/12 06:02:59;;;;;;;2.78;1.83;;;18.40;99.90;;;;;;6067651;23;20006;-80
2022/05/12 06:05:25;;;;;;;3.25;1.70;;;18.40;99.90;;;;;;6067508;23;20144;-80
2022/05/12 06:07:53;;;;;;;2.00;1.70;;;18.50;99.90;;;;;;6093493;23;19998;-80
2022/05/12 06:10:19;;;;;;;3.03;1.83;;;18.40;99.90;;;;;;6067633;23;20014;-80
2022/05/12 06:12:45;;;;;;;4.68;1.63;;;18.40;99.90;;;;;;6093189;23;20006;-80
2022/05/12 06:15:11;;;;;;;3.58;1.85;;;18.50;99.90;;;;;;6067567;23;20461;-80
2022/05/12 06:17:37;;;;;;;3.53;1.70;;;18.40;99.90;;;;;;6093152;23;20007;-80
2022/05/12 06:20:06;;;;;;;2.40;1.77;;;18.50;99.90;;;;;;6067696;23;20080;-81
2022/05/12 06:22:32;;;;;;;3.08;1.75;;;18.50;99.90;;;;;;6093308;23;20006;-80
2022/05/12 06:24:58;;;;;;;1.95;1.75;;;18.50;99.90;;;;;;6067726;23;20007;-80
2022/05/12 06:27:24;;;;;;;3.72;1.90;;;18.50;99.90;;;;;;6093079;23;20075;-80
2022/05/12 06:29:51;;;;;;;2.22;2.00;;;18.50;99.90;;;;;;6093225;23;20006;-80
2022/05/12 06:32:17;;;;;;;3.28;2.10;;;18.60;99.90;;;;;;6093698;23;20085;-80
2022/05/12 06:34:43;;;;;;;2.25;1.40;;;18.60;99.90;;;;;;6067453;23;20006;-80
2022/05/12 06:37:10;;;;;;;4.10;1.90;;;18.60;99.90;;;;;;6093078;23;20442;-80
2022/05/12 06:39:36;;;;;;;4.15;1.65;;;18.60;99.90;;;;;;6093008;23;20022;-80
2022/05/12 06:42:02;;;;;;;4.28;1.80;;;18.60;99.90;;;;;;6067429;23;20007;-81
2022/05/12 06:44:29;;;;;;;2.35;1.80;;;18.60;99.90;;;;;;6092934;23;20431;-80
2022/05/12 06:46:55;;;;;;;2.00;1.65;;;18.60;99.90;;;;;;6092974;23;20034;-81
2022/05/12 06:49:21;;;;;;;2.22;1.60;;;18.60;99.90;;;;;;6093043;23;19999;-81
2022/05/12 06:51:47;;;;;;;2.80;1.50;;;18.60;99.90;;;;;;6067524;23;20002;-81
2022/05/12 06:54:13;;;;;;;1.90;1.58;;;18.70;99.90;;;;;;6092974;23;20077;-81
2022/05/12 06:56:41;;;;;;;2.63;1.50;;;18.70;99.90;;;;;;6067057;23;20454;-81
2022/05/12 06:59:07;;;;;;;5.25;1.80;;;18.70;99.90;;;;;;6092611;23;20073;-80
2022/05/12 07:01:34;;;;;;;4.85;1.95;;;18.70;99.90;;;;;;6093011;23;20311;-81
2022/05/12 07:04:00;;;;;;;2.78;1.88;;;18.70;99.90;;;;;;6092912;23;20009;-80
2022/05/12 07:06:27;;;;;;;2.53;1.40;;;18.70;99.90;;;;;;6067364;23;20491;-80
2022/05/12 07:08:53;;;;;;;2.22;1.50;;;18.70;99.90;;;;;;6092907;23;20006;-80
2022/05/12 07:11:18;;;;;;;2.35;1.60;;;18.70;99.90;;;;;;6093204;23;19998;-81
2022/05/12 07:13:44;;;;;;;2.63;1.75;;;18.70;99.90;;;;;;6092874;23;20077;-80
2022/05/12 07:16:10;;;;;;;2.08;1.45;;;18.70;99.90;;;;;;6092900;23;20320;-80
2022/05/12 07:18:36;;;;;;;3.53;1.63;;;18.60;99.90;;;;;;6067274;23;20061;-80
2022/05/12 07:26:35;;;;;;;2.90;1.50;;;18.70;99.90;;;;;;6093048;23;20014;-81
2022/05/12 07:29:01;;;;;;;2.92;1.70;;;18.70;99.90;;;;;;6067124;23;20010;-80
2022/05/12 07:31:27;;;;;;;3.03;1.50;;;18.70;99.90;;;;;;6067179;23;20007;-80
2022/05/12 07:33:52;;;;;;;5.40;1.70;;;18.70;99.90;;;;;;6067247;23;20037;-81
2022/05/12 07:36:21;;;;;;;1.63;1.40;;;18.70;99.90;;;;;;6067207;23;20010;-81
2022/05/12 07:38:47;;;;;;;2.88;1.60;;;18.80;99.90;;;;;;6092641;23;20030;-81
2022/05/12 07:41:14;;;;;;;1.90;1.40;;;18.70;99.90;;;;;;6092642;23;20339;-81
2022/05/12 07:43:41;;;;;;;1.73;1.33;;;18.80;99.90;;;;;;6067052;23;20007;-80
2022/05/12 07:46:08;;;;;;;1.90;1.50;;;18.70;99.90;;;;;;6092493;23;20338;-80
2022/05/12 07:48:34;;;;;;;4.55;1.65;;;18.80;99.90;;;;;;6092653;23;20427;-80
2022/05/12 07:51:00;;;;;;;2.50;1.40;;;18.80;99.90;;;;;;6093244;23;20002;-80
2022/05/12 07:53:25;;;;;;;1.83;1.38;;;18.80;99.90;;;;;;6067025;23;20064;-81
2022/05/12 07:55:51;;;;;;;1.92;1.45;;;18.80;99.90;;;;;;6066848;23;20050;-81
2022/05/12 07:58:17;;;;;;;2.38;1.30;;;18.90;99.90;;;;;;6067138;23;20011;-81
2022/05/12 08:00:43;;;;;;;3.13;1.50;;;18.90;99.90;;;;;;6066869;23;20007;-81
2022/05/12 08:03:09;;;;;;;2.30;1.20;;;19.00;99.90;;;;;;6066925;23;20394;-81
2022/05/12 08:05:36;;;;;;;1.92;1.40;;;19.00;99.90;;;;;;6092358;23;20015;-81
2022/05/12 08:08:03;;;;;;;3.13;1.30;;;19.00;99.90;;;;;;6067229;23;20014;-81
2022/05/12 08:10:29;;;;;;;1.83;1.45;;;19.10;99.90;;;;;;6094043;23;19998;-81
2022/05/12 08:12:56;;;;;;;2.92;1.40;;;19.10;99.90;;;;;;6068184;23;20060;-81
2022/05/12 08:15:24;;;;;;;4.28;1.45;;;19.20;99.90;;;;;;6093795;23;20423;-81
2022/05/12 08:17:51;;;;;;;2.47;1.45;;;19.20;99.90;;;;;;6093765;23;20002;-82
2022/05/12 08:20:17;;;;;;;2.28;1.30;;;19.20;99.90;;;;;;6094372;23;20002;-81
2022/05/12 08:22:43;;;;;;;1.55;1.20;;;19.30;99.90;;;;;;6094038;23;20014;-81
2022/05/12 08:25:10;;;;;;;4.03;1.42;;;19.30;99.90;;;;;;6068073;23;20010;-81
2022/05/12 08:27:35;;;;;;;1.98;1.30;;;19.30;99.90;;;;;;6093687;23;20415;-81
2022/05/12 08:30:02;;;;;;;3.78;1.40;;;19.20;99.90;;;;;;6093708;23;20009;-81
2022/05/12 08:32:28;;;;;;;3.25;1.30;;;19.20;99.90;;;;;;6068153;23;20052;-81
2022/05/12 08:34:54;;;;;;;1.88;1.33;;;19.20;99.90;;;;;;6068291;23;20003;-81
2022/05/12 08:37:20;;;;;;;1.70;1.20;;;19.20;99.90;;;;;;6068278;23;20006;-80
2022/05/12 08:39:46;;;;;;;2.67;1.40;;;19.10;99.90;;;;;;6093724;23;19998;-81
2022/05/12 08:42:46;;;;;;;2.65;1.38;;;19.10;99.90;;;;;;6093631;23;20002;-81
2022/05/12 08:45:14;;;;;;;2.97;1.50;;;19.10;99.90;;;;;;6085518;23;20011;-81
2022/05/12 08:47:46;;;;;;;2.35;1.45;;;19.10;99.90;;;;;;6068046;23;20006;-81
2022/05/12 08:50:36;;;;;;;2.45;1.27;;;19.10;99.90;;;;;;6068114;23;20005;-81
2022/05/12 08:53:09;;;;;;;2.42;1.30;;;19.20;99.90;;;;;;6068144;23;20010;-81
2022/05/12 08:55:59;;;;;;;4.88;1.50;;;19.20;99.90;;;;;;6093369;23;20254;-81
2022/05/12 08:58:36;;;;;;;2.00;1.10;;;19.20;99.90;;;;;;6093699;23;20021;-81
2022/05/12 09:01:17;;;;;;;2.80;1.40;;;19.20;99.90;;;;;;6068132;23;20060;-82
2022/05/12 09:04:10;;;;;;;2.65;1.33;;;19.30;99.90;;;;;;6093672;23;20006;-81
2022/05/12 09:06:54;;;;;;;3.53;1.33;;;19.30;99.90;;;;;;6093589;23;20017;-81
2022/05/12 09:09:44;;;;;;;2.63;1.50;;;19.40;99.90;;;;;;6094048;23;20026;-82
2022/05/12 09:12:26;;;;;;;2.70;1.38;;;19.40;99.90;;;;;;6093640;23;20473;-81
2022/05/12 09:15:00;;;;;;;3.33;1.23;;;19.50;99.90;;;;;;6093601;23;20014;-81
2022/05/12 09:17:35;;;;;;;3.47;1.40;;;19.50;99.90;;;;;;6093542;23;19998;-81
2022/05/12 09:20:01;;;;;;;1.52;1.17;;;19.60;99.90;;;;;;6093406;23;20002;-81
2022/05/12 09:22:30;;;;;;;2.50;1.42;;;19.60;99.90;;;;;;6093751;23;20120;-82
2022/05/12 09:24:56;;;;;;;4.13;1.35;;;19.70;99.90;;;;;;6093370;23;19999;-81
2022/05/12 09:27:34;;;;;;;2.53;1.30;;;19.70;99.90;;;;;;6068014;23;20006;-81
2022/05/12 09:30:02;;;;;;;1.52;1.35;;;19.70;99.90;;;;;;6093597;23;20458;-81
2022/05/12 09:32:34;;;;;;;2.10;1.60;;;19.70;99.90;;;;;;6067901;23;20392;-80
2022/05/12 09:35:19;;;;;;;2.08;1.33;;;19.80;99.90;;;;;;6093932;23;20002;-81
2022/05/12 09:37:45;;;;;;;;;;;19.80;99.90;;;;;;6094367;23;20034;-81
2022/05/12 09:40:43;;;;;;;4.47;1.45;;;19.90;99.90;;;;;;6093535;23;19928;-81
2022/05/12 09:43:31;;;;;;;3.92;1.35;;;19.80;99.90;;;;;;6069425;23;19999;-81
2022/05/12 09:46:13;;;;;;;5.57;1.90;;;19.90;99.90;;;;;;6067676;23;20010;-82
2022/05/12 09:48:40;;;;;;;2.67;1.50;;;19.90;99.90;;;;;;6093642;23;20434;-82
2022/05/12 09:51:24;;;;;;;4.30;1.70;;;19.90;99.90;;;;;;6067639;23;20330;-82
2022/05/12 09:53:53;;;;;;;4.03;1.50;;;19.90;99.90;;;;;;6093429;23;19998;-81
2022/05/12 09:56:34;;;;;;;3.83;1.67;;;20.00;99.90;;;;;;6092983;23;20015;-82
2022/05/12 09:59:07;;;;;;;3.47;1.90;;;20.00;99.90;;;;;;6093295;23;20446;-81
2022/05/12 10:01:35;;;;;;;6.95;1.63;;;20.00;99.90;;;;;;6093628;23;20029;-82
2022/05/12 10:09:55;;;;;;;2.88;1.73;;;20.10;99.90;;;;;;6093341;23;20057;-81
2022/05/12 10:12:35;;;;;;;6.13;1.92;;;20.20;99.90;;;;;;6093211;23;20008;-81
2022/05/12 10:15:17;;;;;;;3.95;1.88;;;20.10;99.90;;;;;;6067727;23;20029;-81
2022/05/12 10:17:48;;;;;;;1.88;1.63;;;20.10;99.90;;;;;;6068063;23;20438;-81
2022/05/12 10:20:20;;;;;;;3.70;1.98;;;20.20;99.90;;;;;;6093156;23;19999;-81
2022/05/12 10:23:07;;;;;;;3.25;1.77;;;20.20;99.90;;;;;;6067621;23;20010;-82
2022/05/12 10:25:39;;;;;;;3.80;2.05;;;20.20;99.90;;;;;;6093055;23;20385;-82
2022/05/12 10:28:31;;;;;;;3.78;2.00;;;20.20;99.90;;;;;;6093186;23;20006;-81
2022/05/12 10:31:00;;;;;;;5.18;2.03;;;20.20;99.90;;;;;;6094184;23;20045;-80
2022/05/12 10:33:54;;;;;;;4.47;2.20;;;20.30;99.90;;;;;;6066822;23;20092;-81
2022/05/12 10:36:48;;;;;;;7.15;2.13;;;20.30;99.90;;;;;;6067590;23;20422;-82
2022/05/12 10:39:40;;;;;;;6.20;2.30;;;20.30;99.90;;;;;;6067768;23;20041;-82
2022/05/12 10:42:08;;;;;;;5.65;2.28;;;20.30;99.90;;;;;;6068518;23;20235;-81
2022/05/12 10:45:08;;;;;;;3.08;2.00;;;20.30;99.90;;;;;;6067569;23;20006;-81
2022/05/12 10:47:43;;;;;;;3.92;2.30;;;20.40;99.90;;;;;;6093023;23;20003;-81
2022/05/12 10:50:20;;;;;;;;;;;20.40;99.90;;;;;;6067898;23;20006;-82
2022/05/12 10:53:04;;;;;;;2.60;2.25;;;20.50;99.90;;;;;;6092963;23;19901;-81
2022/05/12 10:56:08;;;;;;;4.43;2.30;;;20.50;99.90;;;;;;6067056;23;20018;-82
2022/05/12 10:59:05;;;;;;;7.82;2.28;;;20.50;99.90;;;;;;6093830;23;20018;-81
2022/05/12 11:01:35;;;;;;;5.35;2.45;;;20.50;99.90;;;;;;6068033;23;20450;-81
2022/05/12 11:04:16;;;;;;;7.00;2.70;;;20.50;99.90;;;;;;6067364;23;20017;-81
2022/05/12 11:07:06;;;;;;;5.65;2.45;;;20.50;99.90;;;;;;6092817;23;20007;-82
2022/05/12 11:09:41;;;;;;;3.30;2.33;;;20.50;99.90;;;;;;6092906;23;20002;-82
2022/05/12 11:12:31;;;;;;;4.15;2.58;;;20.60;99.90;;;;;;6092829;23;19999;-81
2022/05/12 11:15:23;;;;;;;7.72;2.70;;;20.50;99.90;;;;;;6067272;23;20006;-81
2022/05/12 11:17:55;;;;;;;3.42;2.50;;;20.60;99.90;;;;;;6093660;23;20007;-81
2022/05/12 11:20:32;;;;;;;6.63;2.45;;;20.60;99.90;;;;;;6067252;23;20007;-82
2022/05/12 11:23:20;;;;;;;4.13;2.28;;;20.70;99.90;;;;;;6067189;23;20002;-82
2022/05/12 11:26:06;;;;;;;4.57;2.72;;;20.70;99.90;;;;;;6067071;23;20011;-81
2022/05/12 11:31:52;;;;;;;4.05;2.58;;;20.70;99.90;;;;;;6093140;23;20473;-81
2022/05/12 11:34:22;;;;;;;4.93;2.90;;;20.70;99.90;;;;;;6067189;23;20007;-82
2022/05/12 11:36:52;;;;;;;4.72;2.92;;;20.70;99.90;;;;;;6067175;23;20089;-81
2022/05/12 11:39:34;;;;;;;3.30;2.40;;;20.70;99.90;;;;;;6067092;23;20007;-82
2022/05/12 11:42:21;;;;;;;5.25;2.67;;;20.70;99.90;;;;;;6067031;23;20064;-82
2022/05/12 11:44:58;;;;;;;4.75;2.80;;;20.70;99.90;;;;;;6093343;23;20002;-81
2022/05/12 11:47:44;;;;;;;3.70;2.75;;;20.70;99.90;;;;;;6068287;23;20006;-82
2022/05/12 11:50:31;;;;;;;4.28;3.10;;;20.70;99.90;;;;;;6068343;23;20010;-82
2022/05/12 11:53:15;;;;;;;4.18;2.67;;;20.70;99.90;;;;;;6068287;23;20034;-81
2022/05/12 11:56:13;;;;;;;4.50;3.05;;;20.70;99.90;;;;;;6093406;23;20076;-81
2022/05/12 11:59:08;;;;;;;4.70;3.20;;;20.70;99.90;;;;;;6110750;23;20431;-81
2022/05/12 12:01:37;;;;;;;6.50;2.72;;;20.80;99.90;;;;;;6093448;23;19999;-81
2022/05/12 12:04:03;;;;;;;7.13;2.70;;;20.80;99.90;;;;;;6068315;23;20006;-80
2022/05/12 12:06:47;;;;;;;5.18;2.80;;;20.80;99.90;;;;;;6093572;23;20006;-81
2022/05/12 12:09:36;;;;;;;4.90;2.65;;;20.80;99.90;;;;;;6093596;23;20005;-81
2022/05/12 12:12:09;;;;;;;4.30;2.90;;;20.80;99.90;;;;;;6094305;23;20418;-82
2022/05/12 12:14:46;;;;;;;4.65;2.90;;;20.80;99.90;;;;;;6093982;23;20077;-82
2022/05/12 12:17:33;;;;;;;4.72;2.40;;;20.80;99.90;;;;;;6068162;23;20085;-82
2022/05/12 12:20:08;;;;;;;6.88;2.50;;;20.70;99.90;;;;;;6068188;23;20072;-83
2022/05/12 12:22:52;;;;;;;7.53;2.72;;;20.80;99.90;;;;;;6093762;23;20069;-82
2022/05/12 12:25:26;;;;;;;7.87;2.80;;;21.70;99.90;;;;;;6068148;23;20017;-82
2022/05/12 12:27:57;;;;;;;6.60;2.70;;;21.80;99.90;;;;;;6068136;23;19999;-82
2022/05/12 12:30:36;;;;;;;4.35;2.78;;;21.60;99.90;;;;;;6093700;23;20359;-82
2022/05/12 12:33:35;;;;;;;6.85;2.60;;;21.40;99.90;;;;;;6068154;23;20085;-82
2022/05/12 12:36:15;;;;;;;7.78;2.60;;;21.30;99.90;;;;;;6093982;23;20010;-82
2022/05/12 12:38:46;;;;;;;4.22;2.80;;;21.30;99.90;;;;;;6068091;23;20011;-82
2022/05/12 12:41:29;;;;;;;6.50;3.17;;;21.20;99.90;;;;;;6068143;23;20060;-82
2022/05/12 12:44:14;;;;;;;5.95;2.70;;;21.20;99.90;;;;;;6068132;23;20029;-82
2022/05/12 12:46:56;;;;;;;6.03;2.70;;;21.20;99.90;;;;;;6068028;23;20011;-81
2022/05/12 12:49:29;;;;;;;5.45;2.88;;;21.20;99.90;;;;;;6093929;23;20069;-82
2022/05/12 12:52:05;;;;;;;5.30;2.88;;;21.30;99.90;;;;;;6068021;23;20331;-82
2022/05/12 12:57:50;;;;;;;5.57;2.72;;;21.50;99.90;;;;;;6093172;23;20068;-81
2022/05/12 13:00:29;;;;;;;3.55;2.63;;;21.70;99.90;;;;;;6069533;23;20434;-82
2022/05/12 13:03:19;;;;;;;6.90;2.70;;;21.70;99.90;;;;;;6068017;23;20007;-82
2022/05/12 13:05:45;;;;;;;6.05;2.95;;;21.80;99.90;;;;;;6093851;23;20074;-82
2022/05/12 13:08:28;;;;;;;6.50;2.83;;;21.80;99.90;;;;;;6067899;23;20010;-83
2022/05/12 13:11:01;;;;;;;4.73;2.80;;;21.70;99.90;;;;;;6093532;23;20495;-82
2022/05/12 13:13:28;;;;;;;6.43;2.63;;;21.70;99.90;;;;;;6067947;23;20002;-82
2022/05/12 13:16:03;;;;;;;6.75;3.35;;;21.60;99.90;;;;;;6067863;23;20007;-82
2022/05/12 13:18:34;;;;;;;4.32;2.75;;;21.50;99.90;;;;;;6093957;23;20096;-82
2022/05/12 13:21:03;;;;;;;7.90;2.55;;;21.50;99.90;;;;;;6093571;23;20013;-83
2022/05/12 13:23:40;;;;;;;6.75;3.10;;;21.50;99.90;;;;;;6093544;23;20308;-82
2022/05/12 13:26:07;;;;;;;3.67;2.50;;;21.60;99.90;;;;;;6067890;23;20044;-82
2022/05/12 13:28:36;;;;;;;3.78;2.65;;;21.50;99.90;;;;;;6067921;23;20470;-82
2022/05/12 13:31:41;;;;;;;4.57;2.72;;;21.50;99.90;;;;;;6093486;23;20056;-82